sensor_id;sensor_type;location;lat;lon;timestamp;P1;durP1;ratioP1;P2;durP2;ratioP2
6467;SDS011;3267;48.794;9.928;2023-07-28T04:02:53;1.67;;;1.58;;
6467;SDS011;3267;48.794;9.928;2023-07-28T04:05:19;1.50;;;1.40;;
6467;SDS011;3267;48.794;9.928;2023-07-28T04:07:45;2.45;;;1.60;;
6467;SDS011;3267;48.794;9.928;2023-07-28T04:10:10;1.92;;;1.60;;
6467;SDS011;3267;48.794;9.928;2023-07-28T04:12:36;3.22;;;2.15;;
6467;SDS011;3267;48.794;9.928;2023-07-28T04:15:02;4.80;;;1.95;;
6467;SDS011;3267;48.794;9.928;2023-07-28T04:17:29;4.30;;;1.52;;
6467;SDS011;3267;48.794;9.928;2023-07-28T04:19:54;2.30;;;1.80;;
6467;SDS011;3267;48.794;9.928;2023-07-28T04:22:20;1.73;;;1.63;;
6467;SDS011;3267;48.794;9.928;2023-07-28T04:24:47;3.58;;;1.92;;
6467;SDS011;3267;48.794;9.928;2023-07-28T04:27:15;2.55;;;1.73;;
6467;SDS011;3267;48.794;9.928;2023-07-28T04:29:41;1.50;;;1.40;;
6467;SDS011;3267;48.794;9.928;2023-07-28T04:32:07;2.13;;;1.92;;
6467;SDS011;3267;48.794;9.928;2023-07-28T04:34:33;1.70;;;1.60;;
6467;SDS011;3267;48.794;9.928;2023-07-28T04:36:59;2.45;;;1.73;;
6467;SDS011;3267;48.794;9.928;2023-07-28T04:39:24;1.77;;;1.67;;
6467;SDS011;3267;48.794;9.928;2023-07-28T04:41:50;2.85;;;1.60;;
6467;SDS011;3267;48.794;9.928;2023-07-28T04:44:16;1.63;;;1.52;;
6467;SDS011;3267;48.794;9.928;2023-07-28T04:46:42;1.60;;;1.50;;
6467;SDS011;3267;48.794;9.928;2023-07-28T04:49:08;1.85;;;1.67;;
6467;SDS011;3267;48.794;9.928;2023-07-28T04:51:33;1.73;;;1.42;;
6467;SDS011;3267;48.794;9.928;2023-07-28T04:53:59;2.95;;;1.50;;
6467;SDS011;3267;48.794;9.928;2023-07-28T04:56:24;1.40;;;1.30;;
6467;SDS011;3267;48.794;9.928;2023-07-28T04:58:50;1.75;;;1.30;;
6467;SDS011;3267;48.794;9.928;2023-07-28T05:01:16;3.13;;;1.50;;
6467;SDS011;3267;48.794;9.928;2023-07-28T05:03:41;2.03;;;1.38;;
6467;SDS011;3267;48.794;9.928;2023-07-28T05:06:07;1.63;;;1.52;;
6467;SDS011;3267;48.794;9.928;2023-07-28T05:08:32;2.47;;;1.67;;
6467;SDS011;3267;48.794;9.928;2023-07-28T05:10:58;3.58;;;1.40;;
6467;SDS011;3267;48.794;9.928;2023-07-28T05:13:23;3.03;;;1.40;;
6467;SDS011;3267;48.794;9.928;2023-07-28T05:15:49;1.23;;;1.23;;
6467;SDS011;3267;48.794;9.928;2023-07-28T05:18:15;1.45;;;1.35;;
6467;SDS011;3267;48.794;9.928;2023-07-28T05:20:40;1.52;;;1.42;;
6467;SDS011;3267;48.794;9.928;2023-07-28T05:23:06;6.55;;;1.52;;
6467;SDS011;3267;48.794;9.928;2023-07-28T05:25:31;1.60;;;1.50;;
6467;SDS011;3267;48.794;9.928;2023-07-28T05:27:57;1.20;;;1.20;;
6467;SDS011;3267;48.794;9.928;2023-07-28T05:30:23;1.50;;;1.40;;
6467;SDS011;3267;48.794;9.928;2023-07-28T05:32:48;2.72;;;1.60;;
6467;SDS011;3267;48.794;9.928;2023-07-28T05:35:14;5.90;;;2.13;;
6467;SDS011;3267;48.794;9.928;2023-07-28T05:37:40;1.63;;;1.52;;
6467;SDS011;3267;48.794;9.928;2023-07-28T05:40:06;1.38;;;1.25;;
6467;SDS011;3267;48.794;9.928;2023-07-28T05:42:32;2.40;;;1.70;;
6467;SDS011;3267;48.794;9.928;2023-07-28T05:44:58;2.42;;;1.65;;
6467;SDS011;3267;48.794;9.928;2023-07-28T05:47:24;1.55;;;1.45;;
6467;SDS011;3267;48.794;9.928;2023-07-28T05:49:51;1.60;;;1.50;;
6467;SDS011;3267;48.794;9.928;2023-07-28T05:52:18;2.58;;;1.48;;
6467;SDS011;3267;48.794;9.928;2023-07-28T05:54:44;2.58;;;1.80;;
6467;SDS011;3267;48.794;9.928;2023-07-28T05:57:10;1.70;;;1.38;;
6467;SDS011;3267;48.794;9.928;2023-07-28T05:59:35;10.68;;;2.03;;
6467;SDS011;3267;48.794;9.928;2023-07-28T06:02:01;1.63;;;1.52;;
6467;SDS011;3267;48.794;9.928;2023-07-28T06:04:27;1.60;;;1.50;;
6467;SDS011;3267;48.794;9.928;2023-07-28T06:06:52;3.08;;;1.70;;
6467;SDS011;3267;48.794;9.928;2023-07-28T06:09:18;2.83;;;1.42;;
6467;SDS011;3267;48.794;9.928;2023-07-28T06:11:44;3.78;;;1.67;;
6467;SDS011;3267;48.794;9.928;2023-07-28T06:14:11;1.70;;;1.60;;
6467;SDS011;3267;48.794;9.928;2023-07-28T06:16:37;1.42;;;1.38;;
6467;SDS011;3267;48.794;9.928;2023-07-28T06:19:02;4.50;;;1.70;;
6467;SDS011;3267;48.794;9.928;2023-07-28T06:21:29;2.33;;;1.73;;
6467;SDS011;3267;48.794;9.928;2023-07-28T06:23:55;3.30;;;1.60;;
6467;SDS011;3267;48.794;9.928;2023-07-28T06:26:20;2.92;;;1.70;;
6467;SDS011;3267;48.794;9.928;2023-07-28T06:28:46;2.42;;;1.90;;
6467;SDS011;3267;48.794;9.928;2023-07-28T06:31:11;4.85;;;2.67;;
6467;SDS011;3267;48.794;9.928;2023-07-28T06:33:37;3.10;;;2.17;;
6467;SDS011;3267;48.794;9.928;2023-07-28T06:36:04;4.35;;;2.15;;
6467;SDS011;3267;48.794;9.928;2023-07-28T06:38:31;2.50;;;2.28;;
6467;SDS011;3267;48.794;9.928;2023-07-28T06:40:57;3.65;;;2.28;;
6467;SDS011;3267;48.794;9.928;2023-07-28T06:43:25;3.17;;;2.30;;
6467;SDS011;3267;48.794;9.928;2023-07-28T06:45:52;5.18;;;2.42;;
6467;SDS011;3267;48.794;9.928;2023-07-28T06:48:20;2.60;;;2.40;;
6467;SDS011;3267;48.794;9.928;2023-07-28T06:50:46;2.08;;;1.95;;
6467;SDS011;3267;48.794;9.928;2023-07-28T06:53:12;2.63;;;2.20;;
6467;SDS011;3267;48.794;9.928;2023-07-28T06:55:37;2.63;;;1.92;;
6467;SDS011;3267;48.794;9.928;2023-07-28T06:58:04;3.65;;;2.17;;
6467;SDS011;3267;48.794;9.928;2023-07-28T07:00:31;2.78;;;1.70;;
6467;SDS011;3267;48.794;9.928;2023-07-28T07:02:57;1.52;;;1.42;;
6467;SDS011;3267;48.794;9.928;2023-07-28T07:05:22;2.10;;;1.90;;
6467;SDS011;3267;48.794;9.928;2023-07-28T07:07:49;2.38;;;2.17;;
6467;SDS011;3267;48.794;9.928;2023-07-28T07:10:14;2.67;;;1.67;;
6467;SDS011;3267;48.794;9.928;2023-07-28T07:12:40;2.47;;;1.75;;
6467;SDS011;3267;48.794;9.928;2023-07-28T07:15:06;2.20;;;1.48;;
6467;SDS011;3267;48.794;9.928;2023-07-28T07:17:32;2.35;;;2.00;;
6467;SDS011;3267;48.794;9.928;2023-07-28T07:19:59;2.03;;;1.75;;
6467;SDS011;3267;48.794;9.928;2023-07-28T07:22:24;3.88;;;2.38;;
6467;SDS011;3267;48.794;9.928;2023-07-28T07:24:53;2.20;;;2.00;;
6467;SDS011;3267;48.794;9.928;2023-07-28T07:27:21;3.70;;;2.33;;
6467;SDS011;3267;48.794;9.928;2023-07-28T07:29:48;2.38;;;2.17;;
6467;SDS011;3267;48.794;9.928;2023-07-28T07:32:14;2.80;;;2.42;;
6467;SDS011;3267;48.794;9.928;2023-07-28T07:34:41;2.53;;;2.20;;
6467;SDS011;3267;48.794;9.928;2023-07-28T07:37:07;2.95;;;2.20;;
6467;SDS011;3267;48.794;9.928;2023-07-28T07:39:33;2.72;;;2.25;;
6467;SDS011;3267;48.794;9.928;2023-07-28T07:41:59;2.45;;;2.25;;
6467;SDS011;3267;48.794;9.928;2023-07-28T07:44:25;2.67;;;2.40;;
6467;SDS011;3267;48.794;9.928;2023-07-28T07:46:51;2.67;;;2.30;;
6467;SDS011;3267;48.794;9.928;2023-07-28T07:49:17;2.70;;;2.50;;
6467;SDS011;3267;48.794;9.928;2023-07-28T07:51:42;2.40;;;2.17;;
6467;SDS011;3267;48.794;9.928;2023-07-28T07:54:08;4.28;;;2.63;;
6467;SDS011;3267;48.794;9.928;2023-07-28T07:56:34;3.60;;;2.60;;
6467;SDS011;3267;48.794;9.928;2023-07-28T07:59:02;2.47;;;2.28;;
6467;SDS011;3267;48.794;9.928;2023-07-28T08:01:28;2.72;;;2.25;;
6467;SDS011;3267;48.794;9.928;2023-07-28T08:03:54;2.63;;;2.42;;
6467;SDS011;3267;48.794;9.928;2023-07-28T08:06:19;3.28;;;2.33;;
6467;SDS011;3267;48.794;9.928;2023-07-28T08:08:45;2.95;;;2.10;;
6467;SDS011;3267;48.794;9.928;2023-07-28T08:11:11;3.45;;;2.13;;
6467;SDS011;3267;48.794;9.928;2023-07-28T08:13:37;2.28;;;2.08;;
6467;SDS011;3267;48.794;9.928;2023-07-28T08:16:02;3.88;;;2.10;;
6467;SDS011;3267;48.794;9.928;2023-07-28T08:18:28;2.45;;;2.25;;
6467;SDS011;3267;48.794;9.928;2023-07-28T08:20:54;2.63;;;2.42;;
6467;SDS011;3267;48.794;9.928;2023-07-28T08:23:19;2.67;;;2.47;;
6467;SDS011;3267;48.794;9.928;2023-07-28T08:25:45;3.10;;;2.20;;
6467;SDS011;3267;48.794;9.928;2023-07-28T08:28:10;2.35;;;2.20;;
6467;SDS011;3267;48.794;9.928;2023-07-28T08:30:36;2.80;;;2.60;;
6467;SDS011;3267;48.794;9.928;2023-07-28T08:33:02;4.20;;;2.50;;
6467;SDS011;3267;48.794;9.928;2023-07-28T08:35:28;2.20;;;2.10;;
6467;SDS011;3267;48.794;9.928;2023-07-28T08:37:54;2.80;;;2.08;;
6467;SDS011;3267;48.794;9.928;2023-07-28T08:40:19;2.70;;;2.25;;
6467;SDS011;3267;48.794;9.928;2023-07-28T08:42:45;2.00;;;1.90;;
6467;SDS011;3267;48.794;9.928;2023-07-28T08:45:11;2.70;;;2.05;;
6467;SDS011;3267;48.794;9.928;2023-07-28T08:47:36;2.40;;;2.20;;
6467;SDS011;3267;48.794;9.928;2023-07-28T08:50:03;2.83;;;1.90;;
6467;SDS011;3267;48.794;9.928;2023-07-28T08:52:29;3.38;;;1.88;;
6467;SDS011;3267;48.794;9.928;2023-07-28T08:54:54;2.88;;;2.40;;
6467;SDS011;3267;48.794;9.928;2023-07-28T08:57:20;3.13;;;1.70;;
6467;SDS011;3267;48.794;9.928;2023-07-28T08:59:46;7.50;;;2.00;;
6467;SDS011;3267;48.794;9.928;2023-07-28T09:02:15;2.10;;;2.00;;
6467;SDS011;3267;48.794;9.928;2023-07-28T09:04:42;4.68;;;2.10;;
6467;SDS011;3267;48.794;9.928;2023-07-28T09:07:09;3.40;;;2.05;;
6467;SDS011;3267;48.794;9.928;2023-07-28T09:09:35;2.50;;;2.05;;
6467;SDS011;3267;48.794;9.928;2023-07-28T09:12:02;2.88;;;2.60;;
6467;SDS011;3267;48.794;9.928;2023-07-28T09:14:29;4.72;;;2.90;;
6467;SDS011;3267;48.794;9.928;2023-07-28T09:16:55;4.05;;;2.53;;
6467;SDS011;3267;48.794;9.928;2023-07-28T09:19:30;2.65;;;2.42;;
6467;SDS011;3267;48.794;9.928;2023-07-28T09:22:00;2.63;;;2.42;;
6467;SDS011;3267;48.794;9.928;2023-07-28T09:24:30;3.78;;;2.35;;
6467;SDS011;3267;48.794;9.928;2023-07-28T09:26:57;2.72;;;2.47;;
6467;SDS011;3267;48.794;9.928;2023-07-28T09:29:23;2.50;;;2.30;;
6467;SDS011;3267;48.794;9.928;2023-07-28T09:31:51;2.65;;;2.17;;
6467;SDS011;3267;48.794;9.928;2023-07-28T09:34:24;2.70;;;2.40;;
6467;SDS011;3267;48.794;9.928;2023-07-28T09:36:54;4.10;;;2.38;;
6467;SDS011;3267;48.794;9.928;2023-07-28T09:39:21;4.20;;;2.38;;
6467;SDS011;3267;48.794;9.928;2023-07-28T09:41:47;3.13;;;2.75;;
6467;SDS011;3267;48.794;9.928;2023-07-28T09:44:13;2.78;;;2.60;;
6467;SDS011;3267;48.794;9.928;2023-07-28T09:49:27;2.55;;;2.35;;
6467;SDS011;3267;48.794;9.928;2023-07-28T09:52:02;2.58;;;2.38;;
6467;SDS011;3267;48.794;9.928;2023-07-28T09:54:30;4.05;;;2.25;;
6467;SDS011;3267;48.794;9.928;2023-07-28T09:56:59;4.43;;;2.58;;
6467;SDS011;3267;48.794;9.928;2023-07-28T09:59:29;3.10;;;2.30;;
6467;SDS011;3267;48.794;9.928;2023-07-28T10:02:00;3.90;;;2.33;;
6467;SDS011;3267;48.794;9.928;2023-07-28T10:04:27;5.22;;;2.05;;
6467;SDS011;3267;48.794;9.928;2023-07-28T10:06:54;3.17;;;2.70;;
6467;SDS011;3267;48.794;9.928;2023-07-28T10:09:25;2.85;;;2.55;;
6467;SDS011;3267;48.794;9.928;2023-07-28T10:11:52;5.32;;;2.03;;
6467;SDS011;3267;48.794;9.928;2023-07-28T10:14:28;4.95;;;2.30;;
6467;SDS011;3267;48.794;9.928;2023-07-28T10:16:56;3.08;;;2.40;;
6467;SDS011;3267;48.794;9.928;2023-07-28T10:19:24;3.15;;;2.50;;
6467;SDS011;3267;48.794;9.928;2023-07-28T10:21:58;2.50;;;2.30;;
6467;SDS011;3267;48.794;9.928;2023-07-28T10:24:50;3.17;;;2.40;;
6467;SDS011;3267;48.794;9.928;2023-07-28T10:27:29;2.60;;;2.40;;
6467;SDS011;3267;48.794;9.928;2023-07-28T10:30:09;3.13;;;2.53;;
6467;SDS011;3267;48.794;9.928;2023-07-28T10:32:40;3.08;;;2.55;;
6467;SDS011;3267;48.794;9.928;2023-07-28T10:35:09;2.67;;;2.30;;
6467;SDS011;3267;48.794;9.928;2023-07-28T10:37:54;2.20;;;2.08;;
6467;SDS011;3267;48.794;9.928;2023-07-28T10:40:29;6.03;;;2.10;;
6467;SDS011;3267;48.794;9.928;2023-07-28T10:42:56;2.45;;;2.05;;
6467;SDS011;3267;48.794;9.928;2023-07-28T10:45:25;1.98;;;1.85;;
6467;SDS011;3267;48.794;9.928;2023-07-28T10:47:55;3.72;;;1.92;;
6467;SDS011;3267;48.794;9.928;2023-07-28T10:50:26;2.45;;;2.13;;
6467;SDS011;3267;48.794;9.928;2023-07-28T10:52:55;2.50;;;2.00;;
6467;SDS011;3267;48.794;9.928;2023-07-28T10:55:23;2.30;;;2.10;;
6467;SDS011;3267;48.794;9.928;2023-07-28T10:57:51;1.98;;;1.60;;
6467;SDS011;3267;48.794;9.928;2023-07-28T11:00:19;4.47;;;2.30;;
6467;SDS011;3267;48.794;9.928;2023-07-28T11:02:55;4.68;;;1.80;;
6467;SDS011;3267;48.794;9.928;2023-07-28T11:05:24;2.17;;;1.98;;
6467;SDS011;3267;48.794;9.928;2023-07-28T11:07:54;1.95;;;1.67;;
6467;SDS011;3267;48.794;9.928;2023-07-28T11:10:21;2.05;;;1.70;;
6467;SDS011;3267;48.794;9.928;2023-07-28T11:12:48;4.38;;;2.15;;
6467;SDS011;3267;48.794;9.928;2023-07-28T11:15:16;2.33;;;2.13;;
6467;SDS011;3267;48.794;9.928;2023-07-28T11:17:44;3.78;;;2.50;;
6467;SDS011;3267;48.794;9.928;2023-07-28T11:20:20;4.50;;;2.10;;
6467;SDS011;3267;48.794;9.928;2023-07-28T11:22:57;2.70;;;2.05;;
6467;SDS011;3267;48.794;9.928;2023-07-28T11:25:24;2.08;;;1.90;;
6467;SDS011;3267;48.794;9.928;2023-07-28T11:27:52;4.05;;;1.92;;
6467;SDS011;3267;48.794;9.928;2023-07-28T11:30:19;7.85;;;2.30;;
6467;SDS011;3267;48.794;9.928;2023-07-28T11:32:47;4.18;;;1.88;;
6467;SDS011;3267;48.794;9.928;2023-07-28T11:35:14;6.25;;;2.60;;
6467;SDS011;3267;48.794;9.928;2023-07-28T11:37:42;3.75;;;2.10;;
6467;SDS011;3267;48.794;9.928;2023-07-28T11:40:11;2.22;;;2.03;;
6467;SDS011;3267;48.794;9.928;2023-07-28T11:42:46;1.95;;;1.80;;
6467;SDS011;3267;48.794;9.928;2023-07-28T11:45:14;2.35;;;2.15;;
6467;SDS011;3267;48.794;9.928;2023-07-28T11:50:30;4.53;;;2.20;;
6467;SDS011;3267;48.794;9.928;2023-07-28T11:52:59;3.53;;;1.75;;
6467;SDS011;3267;48.794;9.928;2023-07-28T11:55:26;3.00;;;1.80;;
6467;SDS011;3267;48.794;9.928;2023-07-28T11:57:52;3.63;;;1.75;;
6467;SDS011;3267;48.794;9.928;2023-07-28T12:00:24;2.40;;;1.35;;
6467;SDS011;3267;48.794;9.928;2023-07-28T12:03:29;1.45;;;1.35;;
6467;SDS011;3267;48.794;9.928;2023-07-28T12:06:03;1.33;;;1.25;;
6467;SDS011;3267;48.794;9.928;2023-07-28T12:08:35;1.88;;;1.60;;
6467;SDS011;3267;48.794;9.928;2023-07-28T12:11:02;1.40;;;1.30;;
6467;SDS011;3267;48.794;9.928;2023-07-28T12:13:27;1.98;;;1.30;;
6467;SDS011;3267;48.794;9.928;2023-07-28T12:15:54;1.52;;;1.42;;
6467;SDS011;3267;48.794;9.928;2023-07-28T12:18:19;1.50;;;1.40;;
6467;SDS011;3267;48.794;9.928;2023-07-28T12:20:46;1.63;;;1.52;;
6467;SDS011;3267;48.794;9.928;2023-07-28T12:23:15;4.40;;;1.23;;
6467;SDS011;3267;48.794;9.928;2023-07-28T12:25:45;1.92;;;1.20;;
6467;SDS011;3267;48.794;9.928;2023-07-28T12:28:11;1.35;;;1.08;;
6467;SDS011;3267;48.794;9.928;2023-07-28T12:30:37;2.60;;;1.30;;
6467;SDS011;3267;48.794;9.928;2023-07-28T12:33:04;1.30;;;1.20;;
6467;SDS011;3267;48.794;9.928;2023-07-28T12:35:30;3.22;;;1.35;;
6467;SDS011;3267;48.794;9.928;2023-07-28T12:37:59;1.85;;;1.30;;
6467;SDS011;3267;48.794;9.928;2023-07-28T12:40:26;1.30;;;1.20;;
6467;SDS011;3267;48.794;9.928;2023-07-28T12:42:55;1.92;;;1.40;;
6467;SDS011;3267;48.794;9.928;2023-07-28T12:45:22;1.67;;;1.42;;
6467;SDS011;3267;48.794;9.928;2023-07-28T12:47:50;1.58;;;1.20;;
6467;SDS011;3267;48.794;9.928;2023-07-28T12:50:17;1.55;;;1.45;;
6467;SDS011;3267;48.794;9.928;2023-07-28T12:52:42;1.40;;;1.30;;
6467;SDS011;3267;48.794;9.928;2023-07-28T12:55:08;1.80;;;1.50;;
6467;SDS011;3267;48.794;9.928;2023-07-28T12:57:33;1.58;;;1.20;;
6467;SDS011;3267;48.794;9.928;2023-07-28T12:59:59;1.40;;;1.30;;
6467;SDS011;3267;48.794;9.928;2023-07-28T13:02:25;1.33;;;1.23;;
6467;SDS011;3267;48.794;9.928;2023-07-28T13:04:50;1.13;;;1.13;;
6467;SDS011;3267;48.794;9.928;2023-07-28T13:07:16;1.55;;;1.25;;
6467;SDS011;3267;48.794;9.928;2023-07-28T13:09:42;1.40;;;1.30;;
6467;SDS011;3267;48.794;9.928;2023-07-28T13:12:08;2.03;;;1.40;;
6467;SDS011;3267;48.794;9.928;2023-07-28T13:14:34;1.50;;;1.30;;
6467;SDS011;3267;48.794;9.928;2023-07-28T13:17:00;1.48;;;1.20;;
6467;SDS011;3267;48.794;9.928;2023-07-28T13:19:26;1.40;;;1.30;;
6467;SDS011;3267;48.794;9.928;2023-07-28T13:21:51;1.50;;;1.10;;
6467;SDS011;3267;48.794;9.928;2023-07-28T13:24:17;2.00;;;1.10;;
6467;SDS011;3267;48.794;9.928;2023-07-28T13:26:43;1.25;;;1.15;;
6467;SDS011;3267;48.794;9.928;2023-07-28T13:29:09;1.20;;;1.20;;
6467;SDS011;3267;48.794;9.928;2023-07-28T13:31:35;1.30;;;1.20;;
6467;SDS011;3267;48.794;9.928;2023-07-28T13:34:00;1.42;;;1.33;;
6467;SDS011;3267;48.794;9.928;2023-07-28T13:36:26;2.47;;;1.20;;
6467;SDS011;3267;48.794;9.928;2023-07-28T13:38:52;3.42;;;1.45;;
6467;SDS011;3267;48.794;9.928;2023-07-28T13:41:17;1.60;;;1.50;;
6467;SDS011;3267;48.794;9.928;2023-07-28T13:43:43;1.63;;;1.52;;
6467;SDS011;3267;48.794;9.928;2023-07-28T13:46:08;3.83;;;1.50;;
6467;SDS011;3267;48.794;9.928;2023-07-28T13:48:34;1.63;;;1.52;;
6467;SDS011;3267;48.794;9.928;2023-07-28T13:51:04;1.70;;;1.40;;
6467;SDS011;3267;48.794;9.928;2023-07-28T13:53:30;1.73;;;1.60;;
6467;SDS011;3267;48.794;9.928;2023-07-28T13:55:56;1.27;;;1.17;;
6467;SDS011;3267;48.794;9.928;2023-07-28T13:58:21;1.75;;;1.40;;
6467;SDS011;3267;48.794;9.928;2023-07-28T14:00:47;1.45;;;1.35;;
6467;SDS011;3267;48.794;9.928;2023-07-28T14:03:13;4.10;;;1.20;;
6467;SDS011;3267;48.794;9.928;2023-07-28T14:05:40;1.70;;;1.40;;
6467;SDS011;3267;48.794;9.928;2023-07-28T14:08:06;1.58;;;1.48;;
6467;SDS011;3267;48.794;9.928;2023-07-28T14:10:31;1.92;;;1.55;;
6467;SDS011;3267;48.794;9.928;2023-07-28T14:12:57;1.27;;;1.23;;
6467;SDS011;3267;48.794;9.928;2023-07-28T14:15:23;2.13;;;1.50;;
6467;SDS011;3267;48.794;9.928;2023-07-28T14:17:49;1.58;;;1.48;;
6467;SDS011;3267;48.794;9.928;2023-07-28T14:20:15;2.40;;;1.35;;
6467;SDS011;3267;48.794;9.928;2023-07-28T14:22:40;2.50;;;1.52;;
6467;SDS011;3267;48.794;9.928;2023-07-28T14:25:06;1.60;;;1.50;;
6467;SDS011;3267;48.794;9.928;2023-07-28T14:27:32;1.70;;;1.60;;
6467;SDS011;3267;48.794;9.928;2023-07-28T14:29:58;1.50;;;1.40;;
6467;SDS011;3267;48.794;9.928;2023-07-28T14:32:23;2.40;;;1.55;;
6467;SDS011;3267;48.794;9.928;2023-07-28T14:34:49;1.85;;;1.40;;
6467;SDS011;3267;48.794;9.928;2023-07-28T14:37:14;1.50;;;1.40;;
6467;SDS011;3267;48.794;9.928;2023-07-28T14:39:45;2.65;;;1.58;;
6467;SDS011;3267;48.794;9.928;2023-07-28T14:42:11;2.13;;;1.92;;
6467;SDS011;3267;48.794;9.928;2023-07-28T14:44:37;2.22;;;1.83;;
6467;SDS011;3267;48.794;9.928;2023-07-28T14:47:03;1.92;;;1.80;;
6467;SDS011;3267;48.794;9.928;2023-07-28T14:49:28;2.20;;;2.00;;
6467;SDS011;3267;48.794;9.928;2023-07-28T14:51:54;1.73;;;1.63;;
6467;SDS011;3267;48.794;9.928;2023-07-28T14:54:20;2.78;;;2.17;;
6467;SDS011;3267;48.794;9.928;2023-07-28T14:56:46;1.83;;;1.70;;
6467;SDS011;3267;48.794;9.928;2023-07-28T14:59:11;2.75;;;1.90;;
6467;SDS011;3267;48.794;9.928;2023-07-28T15:01:37;2.33;;;1.80;;
6467;SDS011;3267;48.794;9.928;2023-07-28T15:04:03;1.80;;;1.70;;
6467;SDS011;3267;48.794;9.928;2023-07-28T15:06:29;5.03;;;2.05;;
6467;SDS011;3267;48.794;9.928;2023-07-28T15:08:55;4.25;;;2.05;;
6467;SDS011;3267;48.794;9.928;2023-07-28T15:11:21;2.78;;;2.03;;
6467;SDS011;3267;48.794;9.928;2023-07-28T15:13:47;4.75;;;2.15;;
6467;SDS011;3267;48.794;9.928;2023-07-28T15:16:12;4.03;;;2.75;;
6467;SDS011;3267;48.794;9.928;2023-07-28T15:18:38;3.72;;;2.67;;
6467;SDS011;3267;48.794;9.928;2023-07-28T15:21:04;4.13;;;2.10;;
6467;SDS011;3267;48.794;9.928;2023-07-28T15:23:29;2.67;;;2.05;;
6467;SDS011;3267;48.794;9.928;2023-07-28T15:25:55;2.33;;;2.13;;
6467;SDS011;3267;48.794;9.928;2023-07-28T15:28:24;2.88;;;2.08;;
6467;SDS011;3267;48.794;9.928;2023-07-28T15:30:50;3.60;;;1.83;;
6467;SDS011;3267;48.794;9.928;2023-07-28T15:33:17;3.60;;;2.10;;
6467;SDS011;3267;48.794;9.928;2023-07-28T15:35:44;2.15;;;1.95;;
6467;SDS011;3267;48.794;9.928;2023-07-28T15:38:10;2.65;;;2.20;;
6467;SDS011;3267;48.794;9.928;2023-07-28T15:40:35;1.90;;;1.80;;
6467;SDS011;3267;48.794;9.928;2023-07-28T15:43:01;1.80;;;1.70;;
6467;SDS011;3267;48.794;9.928;2023-07-28T15:45:27;4.20;;;1.75;;
6467;SDS011;3267;48.794;9.928;2023-07-28T15:47:52;2.90;;;1.92;;
6467;SDS011;3267;48.794;9.928;2023-07-28T15:50:18;5.57;;;1.85;;
6467;SDS011;3267;48.794;9.928;2023-07-28T15:52:45;2.42;;;1.92;;
6467;SDS011;3267;48.794;9.928;2023-07-28T15:55:10;2.90;;;1.95;;
6467;SDS011;3267;48.794;9.928;2023-07-28T15:57:36;2.40;;;2.20;;
6467;SDS011;3267;48.794;9.928;2023-07-28T16:00:02;3.08;;;2.50;;
6467;SDS011;3267;48.794;9.928;2023-07-28T16:02:29;2.75;;;2.10;;
6467;SDS011;3267;48.794;9.928;2023-07-28T16:04:57;2.30;;;2.15;;
6467;SDS011;3267;48.794;9.928;2023-07-28T16:07:22;5.28;;;2.17;;
6467;SDS011;3267;48.794;9.928;2023-07-28T16:09:49;2.30;;;1.90;;
6467;SDS011;3267;48.794;9.928;2023-07-28T16:12:15;2.28;;;1.67;;
6467;SDS011;3267;48.794;9.928;2023-07-28T16:14:43;2.30;;;1.92;;
6467;SDS011;3267;48.794;9.928;2023-07-28T16:17:09;2.78;;;2.13;;
6467;SDS011;3267;48.794;9.928;2023-07-28T16:19:35;2.80;;;2.13;;
6467;SDS011;3267;48.794;9.928;2023-07-28T16:22:00;4.63;;;1.75;;
6467;SDS011;3267;48.794;9.928;2023-07-28T16:24:26;1.75;;;1.65;;
6467;SDS011;3267;48.794;9.928;2023-07-28T16:26:52;2.92;;;2.25;;
6467;SDS011;3267;48.794;9.928;2023-07-28T16:29:19;2.13;;;1.63;;
6467;SDS011;3267;48.794;9.928;2023-07-28T16:31:44;2.33;;;2.13;;
6467;SDS011;3267;48.794;9.928;2023-07-28T16:34:11;2.00;;;1.90;;
6467;SDS011;3267;48.794;9.928;2023-07-28T16:36:38;1.95;;;1.75;;
6467;SDS011;3267;48.794;9.928;2023-07-28T16:39:03;1.55;;;1.45;;
6467;SDS011;3267;48.794;9.928;2023-07-28T16:41:29;1.80;;;1.70;;
6467;SDS011;3267;48.794;9.928;2023-07-28T16:43:57;3.03;;;2.22;;
6467;SDS011;3267;48.794;9.928;2023-07-28T16:46:22;3.03;;;1.92;;
6467;SDS011;3267;48.794;9.928;2023-07-28T16:48:48;2.80;;;1.98;;
6467;SDS011;3267;48.794;9.928;2023-07-28T16:51:15;1.98;;;1.80;;
6467;SDS011;3267;48.794;9.928;2023-07-28T16:53:41;1.98;;;1.77;;
6467;SDS011;3267;48.794;9.928;2023-07-28T16:56:07;2.53;;;2.00;;
6467;SDS011;3267;48.794;9.928;2023-07-28T16:58:32;3.92;;;1.88;;
6467;SDS011;3267;48.794;9.928;2023-07-28T17:00:58;2.08;;;1.98;;
6467;SDS011;3267;48.794;9.928;2023-07-28T17:03:24;3.28;;;1.90;;
6467;SDS011;3267;48.794;9.928;2023-07-28T17:05:50;2.92;;;2.15;;
6467;SDS011;3267;48.794;9.928;2023-07-28T17:08:16;2.00;;;1.90;;
6467;SDS011;3267;48.794;9.928;2023-07-28T17:10:42;2.90;;;2.03;;
6467;SDS011;3267;48.794;9.928;2023-07-28T17:13:08;4.40;;;2.08;;
6467;SDS011;3267;48.794;9.928;2023-07-28T17:15:34;1.70;;;1.60;;
6467;SDS011;3267;48.794;9.928;2023-07-28T17:17:59;2.70;;;1.95;;
6467;SDS011;3267;48.794;9.928;2023-07-28T17:20:25;2.00;;;1.80;;
6467;SDS011;3267;48.794;9.928;2023-07-28T17:22:52;1.83;;;1.73;;
6467;SDS011;3267;48.794;9.928;2023-07-28T17:25:20;2.85;;;2.22;;
6467;SDS011;3267;48.794;9.928;2023-07-28T17:27:46;2.90;;;2.00;;
6467;SDS011;3267;48.794;9.928;2023-07-28T17:30:11;1.90;;;1.80;;
6467;SDS011;3267;48.794;9.928;2023-07-28T17:32:38;3.15;;;2.70;;
6467;SDS011;3267;48.794;9.928;2023-07-28T17:35:04;4.13;;;1.90;;
6467;SDS011;3267;48.794;9.928;2023-07-28T17:37:30;2.58;;;2.22;;
6467;SDS011;3267;48.794;9.928;2023-07-28T17:39:55;2.33;;;2.13;;
6467;SDS011;3267;48.794;9.928;2023-07-28T17:42:21;3.30;;;2.22;;
6467;SDS011;3267;48.794;9.928;2023-07-28T17:44:50;3.55;;;2.40;;
6467;SDS011;3267;48.794;9.928;2023-07-28T17:47:15;2.70;;;2.40;;
6467;SDS011;3267;48.794;9.928;2023-07-28T17:49:44;3.70;;;2.53;;
6467;SDS011;3267;48.794;9.928;2023-07-28T17:52:12;5.90;;;2.70;;
6467;SDS011;3267;48.794;9.928;2023-07-28T17:54:39;2.55;;;2.35;;
6467;SDS011;3267;48.794;9.928;2023-07-28T17:57:04;2.72;;;2.45;;
6467;SDS011;3267;48.794;9.928;2023-07-28T17:59:31;2.55;;;1.98;;
6467;SDS011;3267;48.794;9.928;2023-07-28T18:01:56;2.40;;;2.20;;
6467;SDS011;3267;48.794;9.928;2023-07-28T18:04:23;2.17;;;2.05;;
6467;SDS011;3267;48.794;9.928;2023-07-28T18:06:54;2.70;;;2.50;;
6467;SDS011;3267;48.794;9.928;2023-07-28T18:09:20;2.83;;;1.90;;
6467;SDS011;3267;48.794;9.928;2023-07-28T18:11:46;1.85;;;1.75;;
6467;SDS011;3267;48.794;9.928;2023-07-28T18:14:12;2.53;;;1.88;;
6467;SDS011;3267;48.794;9.928;2023-07-28T18:16:37;2.15;;;1.92;;
6467;SDS011;3267;48.794;9.928;2023-07-28T18:19:03;6.55;;;2.00;;
6467;SDS011;3267;48.794;9.928;2023-07-28T18:21:29;2.33;;;2.13;;
6467;SDS011;3267;48.794;9.928;2023-07-28T18:23:56;2.15;;;1.95;;
6467;SDS011;3267;48.794;9.928;2023-07-28T18:26:22;2.00;;;1.90;;
6467;SDS011;3267;48.794;9.928;2023-07-28T18:28:50;2.00;;;1.90;;
6467;SDS011;3267;48.794;9.928;2023-07-28T18:31:16;2.83;;;2.38;;
6467;SDS011;3267;48.794;9.928;2023-07-28T18:33:41;1.88;;;1.77;;
6467;SDS011;3267;48.794;9.928;2023-07-28T18:36:08;2.85;;;2.17;;
6467;SDS011;3267;48.794;9.928;2023-07-28T18:38:34;2.65;;;2.10;;
6467;SDS011;3267;48.794;9.928;2023-07-28T18:40:59;4.75;;;2.00;;
6467;SDS011;3267;48.794;9.928;2023-07-28T18:43:27;3.25;;;2.22;;
6467;SDS011;3267;48.794;9.928;2023-07-28T18:45:56;2.10;;;1.90;;
6467;SDS011;3267;48.794;9.928;2023-07-28T18:48:22;1.90;;;1.80;;
6467;SDS011;3267;48.794;9.928;2023-07-28T18:50:47;1.95;;;1.65;;
6467;SDS011;3267;48.794;9.928;2023-07-28T18:53:14;3.03;;;2.13;;
6467;SDS011;3267;48.794;9.928;2023-07-28T18:55:40;2.22;;;1.88;;
6467;SDS011;3267;48.794;9.928;2023-07-28T18:58:06;2.40;;;2.20;;
6467;SDS011;3267;48.794;9.928;2023-07-28T19:00:32;3.15;;;1.90;;
6467;SDS011;3267;48.794;9.928;2023-07-28T19:02:59;2.33;;;1.88;;
6467;SDS011;3267;48.794;9.928;2023-07-28T19:05:25;1.80;;;1.70;;
6467;SDS011;3267;48.794;9.928;2023-07-28T19:07:50;1.77;;;1.45;;
6467;SDS011;3267;48.794;9.928;2023-07-28T19:10:16;1.70;;;1.60;;
6467;SDS011;3267;48.794;9.928;2023-07-28T19:12:42;2.10;;;1.73;;
6467;SDS011;3267;48.794;9.928;2023-07-28T19:15:08;2.55;;;1.40;;
6467;SDS011;3267;48.794;9.928;2023-07-28T19:17:35;1.98;;;1.80;;
6467;SDS011;3267;48.794;9.928;2023-07-28T19:20:01;5.75;;;1.70;;